createdAt,value
2018-12-17T00:00:05.395Z,0
2018-12-17T00:01:15.463Z,0
2018-12-17T00:02:25.524Z,0
2018-12-17T00:03:35.332Z,0
2018-12-17T00:04:45.377Z,0
2018-12-17T00:05:55.438Z,0
2018-12-17T00:07:05.503Z,0
2018-12-17T00:08:15.653Z,0
2018-12-17T00:09:25.695Z,0
2018-12-17T00:10:36.763Z,0
2018-12-17T00:11:46.828Z,0
2018-12-17T00:12:56.879Z,0
2018-12-17T00:14:06.941Z,0
2018-12-17T00:15:17.029Z,0
2018-12-17T00:16:27.085Z,0
2018-12-17T00:17:37.148Z,0
2018-12-17T00:18:46.961Z,0
2018-12-17T00:19:57.024Z,0
2018-12-17T00:21:06.803Z,0
2018-12-17T00:22:16.832Z,0
2018-12-17T00:23:26.886Z,0
2018-12-17T00:24:36.989Z,0
2018-12-17T00:25:47.057Z,0
2018-12-17T00:26:57.126Z,0
2018-12-17T00:28:13.086Z,0
2018-12-17T00:29:23.145Z,0
2018-12-17T00:30:33.295Z,0
2018-12-17T00:31:43.338Z,0
2018-12-17T00:32:53.409Z,0
2018-12-17T00:34:03.777Z,0
2018-12-17T00:35:13.818Z,0
2018-12-17T00:36:23.883Z,0
2018-12-17T00:37:33.678Z,0
2018-12-17T00:38:43.515Z,0
2018-12-17T00:39:53.580Z,0
2018-12-17T00:41:03.787Z,0
2018-12-17T00:42:13.839Z,0
2018-12-17T00:43:23.897Z,0
2018-12-17T00:44:33.975Z,0
2018-12-17T00:45:44.025Z,0
2018-12-17T00:46:54.071Z,0
2018-12-17T00:48:04.156Z,0
2018-12-17T00:49:14.224Z,0
2018-12-17T00:50:24.269Z,0
2018-12-17T00:51:34.309Z,0
2018-12-17T00:52:44.373Z,0
2018-12-17T00:53:54.416Z,0
2018-12-17T00:55:04.464Z,0
2018-12-17T00:56:14.509Z,0
2018-12-17T00:57:24.562Z,0
2018-12-17T00:58:34.347Z,0
2018-12-17T00:59:44.393Z,0
2018-12-17T01:00:54.437Z,0
2018-12-17T01:02:04.530Z,0
2018-12-17T01:03:14.690Z,0
2018-12-17T01:04:24.471Z,0
2018-12-17T01:05:34.283Z,0
2018-12-17T01:06:44.329Z,0
2018-12-17T01:07:54.381Z,0
2018-12-17T01:09:04.433Z,0
2018-12-17T01:10:14.476Z,0
2018-12-17T01:11:24.521Z,0
2018-12-17T01:12:34.574Z,0
2018-12-17T01:13:44.621Z,0
2018-12-17T01:14:54.670Z,0
2018-12-17T01:16:04.449Z,0
2018-12-17T01:17:14.549Z,0
2018-12-17T01:18:24.611Z,0
2018-12-17T01:19:34.420Z,0
2018-12-17T01:20:43.962Z,0
2018-12-17T01:21:54.008Z,0
2018-12-17T01:23:04.109Z,0
2018-12-17T01:24:14.157Z,0
2018-12-17T01:25:24.202Z,0
2018-12-17T01:26:34.246Z,0
2018-12-17T01:27:44.295Z,0
2018-12-17T01:28:54.331Z,0
2018-12-17T01:30:04.973Z,0
2018-12-17T01:31:14.501Z,0
2018-12-17T01:32:24.372Z,0
2018-12-17T01:33:34.418Z,0
2018-12-17T01:34:44.271Z,0
2018-12-17T01:35:54.054Z,0
2018-12-17T01:37:03.911Z,0
2018-12-17T01:38:13.947Z,0
2018-12-17T01:39:24.013Z,0
2018-12-17T01:40:33.863Z,0
2018-12-17T01:41:43.902Z,0
2018-12-17T01:42:53.694Z,0
2018-12-17T01:44:03.505Z,0
2018-12-17T01:45:13.403Z,0
2018-12-17T01:46:23.523Z,0
2018-12-17T01:47:33.298Z,0
2018-12-17T01:48:43.347Z,0
2018-12-17T01:49:53.143Z,0
2018-12-17T01:51:02.942Z,0
2018-12-17T01:52:12.748Z,0
2018-12-17T01:53:22.798Z,0
2018-12-17T01:54:32.849Z,0
2018-12-17T01:55:42.897Z,0
2018-12-17T01:56:53.029Z,0
2018-12-17T01:58:02.826Z,0
2018-12-17T01:59:12.881Z,0
2018-12-17T02:00:22.931Z,0
2018-12-17T02:01:32.732Z,0
2018-12-17T02:02:42.782Z,0
2018-12-17T02:03:53.128Z,0
2018-12-17T02:05:03.169Z,0
2018-12-17T02:06:13.216Z,0
2018-12-17T02:07:24.670Z,0
2018-12-17T02:08:34.483Z,0
2018-12-17T02:09:44.532Z,0
2018-12-17T02:10:54.419Z,0
2018-12-17T02:12:04.478Z,0
2018-12-17T02:13:14.555Z,0
2018-12-17T02:14:24.349Z,0
2018-12-17T02:15:34.396Z,0
2018-12-17T02:16:44.429Z,0
2018-12-17T02:17:53.960Z,0
2018-12-17T02:19:03.997Z,0
2018-12-17T02:20:14.044Z,0
2018-12-17T02:21:24.174Z,0
2018-12-17T02:22:34.222Z,0
2018-12-17T02:23:44.268Z,0
2018-12-17T02:24:54.059Z,0
2018-12-17T02:26:03.586Z,0
2018-12-17T02:27:13.383Z,0
2018-12-17T02:28:23.426Z,0
2018-12-17T02:29:33.468Z,0
2018-12-17T02:30:43.527Z,0
2018-12-17T02:31:53.071Z,0
2018-12-17T02:33:03.149Z,0
2018-12-17T02:34:13.217Z,0
2018-12-17T02:35:25.021Z,0
2018-12-17T02:36:34.964Z,0
2018-12-17T02:37:45.003Z,0
2018-12-17T02:38:55.079Z,0
2018-12-17T02:40:05.117Z,0
2018-12-17T02:41:14.921Z,0
2018-12-17T02:42:24.970Z,0
2018-12-17T02:43:34.745Z,0
2018-12-17T02:44:44.798Z,0
2018-12-17T02:45:54.611Z,0
2018-12-17T02:47:04.674Z,0
2018-12-17T02:48:14.803Z,0
2018-12-17T02:49:24.604Z,0
2018-12-17T02:50:34.713Z,0
2018-12-17T02:51:44.760Z,0
2018-12-17T02:52:54.546Z,0
2018-12-17T02:54:04.596Z,0
2018-12-17T02:55:14.750Z,0
2018-12-17T02:56:24.792Z,0
2018-12-17T02:57:35.017Z,0
2018-12-17T02:58:51.272Z,0
2018-12-17T03:00:01.320Z,0
2018-12-17T03:01:11.373Z,0
2018-12-17T03:02:21.529Z,0
2018-12-17T03:03:31.583Z,0
2018-12-17T03:35:05.609Z,0
2018-12-17T03:36:15.653Z,0
2018-12-17T03:37:25.702Z,0
2018-12-17T03:38:35.735Z,0
2018-12-17T03:39:45.302Z,0
2018-12-17T03:40:55.595Z,0
2018-12-17T03:42:05.993Z,0
2018-12-17T03:43:16.051Z,0
2018-12-17T03:44:26.104Z,0
2018-12-17T03:45:35.678Z,0
2018-12-17T03:46:45.778Z,0
2018-12-17T03:47:55.597Z,0
2018-12-17T03:49:08.124Z,0
2018-12-17T03:50:17.923Z,0
2018-12-17T03:51:27.718Z,0
2018-12-17T03:52:37.500Z,0
2018-12-17T03:53:47.288Z,0
2018-12-17T03:54:57.081Z,0
2018-12-17T03:56:06.882Z,0
2018-12-17T03:57:16.711Z,0
2018-12-17T03:58:26.504Z,0
2018-12-17T03:59:36.294Z,0
2018-12-17T04:00:46.117Z,0
2018-12-17T04:01:56.172Z,0
2018-12-17T04:03:06.238Z,0
2018-12-17T04:04:16.346Z,0
2018-12-17T04:05:26.407Z,0
2018-12-17T04:06:36.460Z,0
2018-12-17T04:07:46.525Z,0
2018-12-17T04:08:56.587Z,0
2018-12-17T04:10:06.713Z,0
2018-12-17T04:11:16.526Z,0
2018-12-17T04:12:26.570Z,0
2018-12-17T04:13:36.628Z,0
2018-12-17T04:14:46.412Z,0
2018-12-17T04:15:56.516Z,0
2018-12-17T04:17:06.581Z,0
2018-12-17T04:18:16.638Z,0
2018-12-17T04:19:26.682Z,0
2018-12-17T04:20:36.724Z,0
2018-12-17T04:21:46.835Z,0
2018-12-17T04:22:56.883Z,0
2018-12-17T04:24:06.693Z,0
2018-12-17T04:25:16.751Z,0
2018-12-17T04:26:26.547Z,0
2018-12-17T04:27:36.584Z,0
2018-12-17T04:28:46.726Z,0
2018-12-17T04:29:56.519Z,0
2018-12-17T04:31:06.314Z,0
2018-12-17T04:32:15.843Z,0
2018-12-17T04:33:25.908Z,0
2018-12-17T04:34:35.968Z,0
2018-12-17T04:35:46.029Z,0
2018-12-17T04:36:55.838Z,0
2018-12-17T04:38:05.716Z,0
2018-12-17T04:39:15.781Z,0
2018-12-17T04:40:25.841Z,0
2018-12-17T04:41:35.897Z,0
2018-12-17T04:42:45.701Z,0
2018-12-17T04:43:55.232Z,0
2018-12-17T04:45:05.342Z,0
2018-12-17T04:46:16.612Z,0
2018-12-17T04:47:26.692Z,0
2018-12-17T04:48:36.721Z,0
2018-12-17T04:49:46.272Z,0
2018-12-17T04:50:56.048Z,0
2018-12-17T04:52:06.182Z,0
2018-12-17T04:53:16.243Z,0
2018-12-17T04:54:26.295Z,0
2018-12-17T04:55:36.098Z,0
2018-12-17T04:56:47.016Z,0
2018-12-17T04:57:57.102Z,0
2018-12-17T04:59:14.338Z,0
2018-12-17T05:00:24.598Z,0
2018-12-17T05:01:34.705Z,0
2018-12-17T05:02:44.757Z,0
2018-12-17T05:03:54.825Z,0
2018-12-17T05:05:04.885Z,0
2018-12-17T05:06:14.961Z,0
2018-12-17T05:07:24.753Z,0
2018-12-17T05:08:34.801Z,0
2018-12-17T05:09:44.588Z,0
2018-12-17T05:10:54.398Z,0
2018-12-17T05:12:04.451Z,0
2018-12-17T05:13:14.528Z,0
2018-12-17T05:14:24.366Z,0
2018-12-17T05:15:34.441Z,0
2018-12-17T05:16:44.514Z,0
2018-12-17T05:17:54.661Z,0
2018-12-17T05:19:04.443Z,0
2018-12-17T05:20:14.549Z,0
2018-12-17T05:21:24.364Z,0
2018-12-17T05:22:33.899Z,0
2018-12-17T05:23:43.679Z,0
2018-12-17T05:24:53.493Z,0
2018-12-17T05:26:03.386Z,0
2018-12-17T05:27:13.172Z,0
2018-12-17T05:28:23.223Z,0
2018-12-17T05:29:33.281Z,0
2018-12-17T05:30:43.350Z,0
2018-12-17T05:31:53.259Z,0
2018-12-17T05:33:03.068Z,0
2018-12-17T05:34:13.114Z,0
2018-12-17T05:35:23.214Z,0
2018-12-17T05:36:33.257Z,0
2018-12-17T05:37:43.303Z,0
2018-12-17T05:38:53.356Z,0
2018-12-17T05:40:03.398Z,0
2018-12-17T05:41:13.496Z,0
2018-12-17T05:42:23.304Z,0
2018-12-17T05:43:33.437Z,0
2018-12-17T05:44:43.506Z,0
2018-12-17T05:45:53.600Z,0
2018-12-17T05:47:03.407Z,0
2018-12-17T05:48:13.443Z,0
2018-12-17T05:49:22.991Z,0
2018-12-17T05:50:33.067Z,0
2018-12-17T05:51:43.130Z,0
2018-12-17T05:52:53.196Z,0
2018-12-17T05:54:03.236Z,0
2018-12-17T05:55:12.793Z,0
2018-12-17T05:56:22.841Z,0
2018-12-17T05:57:32.943Z,0
2018-12-17T05:58:43.109Z,0
2018-12-17T05:59:52.895Z,0
2018-12-17T06:01:02.977Z,0
2018-12-17T06:02:13.028Z,0
2018-12-17T06:03:23.076Z,0
2018-12-17T06:04:32.871Z,0
2018-12-17T06:05:42.668Z,0
2018-12-17T06:06:52.722Z,0
2018-12-17T06:08:02.533Z,0
2018-12-17T06:09:12.660Z,0
2018-12-17T06:10:22.465Z,0
2018-12-17T06:11:32.514Z,0
2018-12-17T06:12:42.308Z,0
2018-12-17T06:13:52.111Z,0
2018-12-17T06:15:02.151Z,0
2018-12-17T06:16:12.184Z,0
2018-12-17T06:17:22.345Z,0
2018-12-17T06:18:32.648Z,0
2018-12-17T06:19:42.687Z,0
2018-12-17T06:20:52.722Z,0
2018-12-17T06:22:02.778Z,0
2018-12-17T06:23:12.572Z,0
2018-12-17T06:24:22.628Z,0
2018-12-17T06:25:32.428Z,0
2018-12-17T06:26:42.526Z,0
2018-12-17T06:27:52.561Z,0
2018-12-17T06:29:02.704Z,0
2018-12-17T06:30:12.761Z,0
2018-12-17T06:31:22.788Z,0
2018-12-17T06:32:32.836Z,0
2018-12-17T06:33:42.881Z,0
2018-12-17T06:34:52.667Z,0
2018-12-17T06:36:02.724Z,0
2018-12-17T06:37:12.273Z,0
2018-12-17T06:38:22.338Z,0
2018-12-17T06:39:32.122Z,0
2018-12-17T06:40:41.912Z,0
2018-12-17T06:41:51.957Z,0
2018-12-17T06:43:02.031Z,0
2018-12-17T06:44:12.072Z,0
2018-12-17T06:45:21.621Z,0
2018-12-17T06:46:31.401Z,0
2018-12-17T06:47:41.451Z,0
2018-12-17T06:48:51.021Z,5
2018-12-17T06:50:02.302Z,5
2018-12-17T06:51:12.102Z,5
2018-12-17T06:52:22.141Z,5
2018-12-17T06:53:32.190Z,5
2018-12-17T06:54:41.978Z,5
2018-12-17T06:55:51.761Z,5
2018-12-17T06:57:01.877Z,5
2018-12-17T06:58:12.218Z,5
2018-12-17T06:59:22.254Z,5
2018-12-17T07:00:32.361Z,5
2018-12-17T07:01:42.405Z,5
2018-12-17T07:02:52.186Z,5
2018-12-17T07:04:01.980Z,5
2018-12-17T07:05:12.014Z,5
2018-12-17T07:06:22.111Z,5
2018-12-17T07:07:32.158Z,5
2018-12-17T07:08:42.254Z,10
2018-12-17T07:09:52.312Z,10
2018-12-17T07:11:02.369Z,10
2018-12-17T07:12:12.483Z,10
2018-12-17T07:13:22.013Z,10
2018-12-17T07:14:39.078Z,10
2018-12-17T07:15:49.156Z,10
2018-12-17T07:16:58.688Z,10
2018-12-17T07:18:08.750Z,10
2018-12-17T07:19:18.529Z,10
2018-12-17T07:20:28.589Z,10
2018-12-17T07:21:38.641Z,10
2018-12-17T07:22:48.172Z,15
2018-12-17T07:24:02.288Z,15
2018-12-17T07:25:12.329Z,15
2018-12-17T07:26:22.399Z,15
2018-12-17T07:27:32.451Z,15
2018-12-17T07:28:42.245Z,20
2018-12-17T07:29:59.355Z,20
2018-12-17T07:31:09.166Z,20
2018-12-17T07:32:18.797Z,20
2018-12-17T07:33:28.614Z,20
2018-12-17T07:34:38.657Z,25
2018-12-17T07:35:48.451Z,25
2018-12-17T07:36:58.500Z,25
2018-12-17T07:38:08.552Z,25
2018-12-17T07:39:18.597Z,25
2018-12-17T07:40:28.392Z,30
2018-12-17T07:41:38.490Z,30
2018-12-17T07:42:48.548Z,30
2018-12-17T07:43:58.362Z,30
2018-12-17T07:45:10.060Z,30
2018-12-17T07:46:20.135Z,35
2018-12-17T07:47:29.968Z,35
2018-12-17T07:48:40.040Z,35
2018-12-17T07:49:50.097Z,35
2018-12-17T07:51:00.145Z,35
2018-12-17T07:52:11.393Z,40
2018-12-17T07:53:21.471Z,40
2018-12-17T07:54:31.522Z,40
2018-12-17T07:55:41.589Z,40
2018-12-17T07:56:51.686Z,40
2018-12-17T07:58:01.736Z,40
2018-12-17T07:59:11.794Z,40
2018-12-17T08:00:21.845Z,40
2018-12-17T08:01:31.884Z,40
2018-12-17T08:02:41.681Z,40
2018-12-17T08:03:51.761Z,40
2018-12-17T08:05:01.566Z,40
2018-12-17T08:06:11.622Z,40
2018-12-17T08:07:21.435Z,40
2018-12-17T08:08:37.715Z,40
2018-12-17T08:09:47.764Z,40
2018-12-17T08:10:57.832Z,40
2018-12-17T08:12:08.485Z,40
2018-12-17T08:13:18.279Z,40
2018-12-17T08:14:28.329Z,40
2018-12-17T08:15:38.413Z,40
2018-12-17T08:16:48.215Z,40
2018-12-17T08:17:58.321Z,40
2018-12-17T08:19:08.378Z,40
2018-12-17T08:20:18.698Z,40
2018-12-17T08:21:28.742Z,45
2018-12-17T08:22:38.805Z,45
2018-12-17T08:23:48.858Z,45
2018-12-17T08:24:58.687Z,45
2018-12-17T08:26:08.839Z,45
2018-12-17T08:27:18.891Z,45
2018-12-17T08:28:28.926Z,45
2018-12-17T08:29:38.734Z,45
2018-12-17T08:30:48.782Z,50
2018-12-17T08:31:58.646Z,45
2018-12-17T08:33:08.502Z,50
2018-12-17T08:34:18.572Z,50
2018-12-17T08:35:28.371Z,55
2018-12-17T08:36:38.436Z,50
2018-12-17T08:37:48.027Z,50
2018-12-17T08:38:58.076Z,50
2018-12-17T08:40:10.377Z,60
2018-12-17T08:41:20.187Z,60
2018-12-17T08:42:30.228Z,60
2018-12-17T08:43:40.089Z,60
2018-12-17T08:44:49.897Z,65
2018-12-17T08:45:59.950Z,65
2018-12-17T08:47:09.641Z,65
2018-12-17T08:48:19.191Z,65
2018-12-17T08:49:29.244Z,65
2018-12-17T08:50:39.049Z,60
2018-12-17T08:51:48.858Z,60
2018-12-17T08:52:58.656Z,60
2018-12-17T08:54:08.711Z,60
2018-12-17T08:55:18.751Z,60
2018-12-17T08:56:28.814Z,60
2018-12-17T08:57:45.104Z,60
2018-12-17T08:58:54.896Z,60
2018-12-17T09:00:10.953Z,60
2018-12-17T09:01:21.211Z,60
2018-12-17T09:02:31.015Z,60
2018-12-17T09:03:41.058Z,60
2018-12-17T09:04:50.840Z,60
2018-12-17T09:06:00.698Z,60
2018-12-17T09:07:10.785Z,60
2018-12-17T09:08:20.826Z,60
2018-12-17T09:09:30.625Z,60
2018-12-17T09:10:40.764Z,60
2018-12-17T09:11:50.393Z,60
2018-12-17T09:13:00.351Z,60
2018-12-17T09:14:09.892Z,60
2018-12-17T09:15:19.997Z,65
2018-12-17T09:16:30.052Z,70
2018-12-17T09:17:40.104Z,65
2018-12-17T09:18:49.685Z,70
2018-12-17T09:19:59.891Z,70
2018-12-17T09:21:09.950Z,70
2018-12-17T09:22:19.780Z,70
2018-12-17T09:23:29.859Z,70
2018-12-17T09:24:39.992Z,75
2018-12-17T09:25:50.055Z,75
2018-12-17T09:27:00.107Z,75
2018-12-17T09:28:10.224Z,80
2018-12-17T09:29:20.357Z,80
2018-12-17T09:30:30.474Z,85
2018-12-17T09:31:40.511Z,90
2018-12-17T09:32:50.566Z,85
2018-12-17T09:34:00.633Z,90
2018-12-17T09:35:10.441Z,90
2018-12-17T09:36:20.530Z,90
2018-12-17T09:37:30.588Z,85
2018-12-17T09:38:40.649Z,85
2018-12-17T09:39:50.688Z,90
2018-12-17T09:41:01.194Z,85
2018-12-17T09:42:10.995Z,85
2018-12-17T09:43:21.047Z,85
2018-12-17T09:44:31.116Z,85
2018-12-17T09:45:41.313Z,90
2018-12-17T09:46:51.414Z,90
2018-12-17T09:48:01.654Z,95
2018-12-17T09:49:12.816Z,100
2018-12-17T09:50:23.755Z,100
2018-12-17T09:51:33.840Z,100
2018-12-17T09:52:43.919Z,100
2018-12-17T09:53:53.996Z,100
2018-12-17T09:55:04.056Z,105
2018-12-17T09:56:14.109Z,100
2018-12-17T09:57:24.144Z,100
2018-12-17T09:58:33.953Z,95
2018-12-17T09:59:43.749Z,95
2018-12-17T10:00:53.793Z,95
2018-12-17T10:02:03.594Z,105
2018-12-17T10:03:13.454Z,100
2018-12-17T10:04:23.552Z,105
2018-12-17T10:05:33.416Z,105
2018-12-17T10:06:43.461Z,95
2018-12-17T10:07:53.290Z,105
2018-12-17T10:09:05.648Z,115
2018-12-17T10:10:15.457Z,105
2018-12-17T10:11:25.514Z,95
2018-12-17T10:12:35.586Z,95
2018-12-17T10:13:45.165Z,105
2018-12-17T10:14:55.274Z,110
2018-12-17T10:16:05.353Z,115
2018-12-17T10:17:15.795Z,105
2018-12-17T10:18:25.850Z,110
2018-12-17T10:19:36.114Z,105
2018-12-17T10:20:45.953Z,105
2018-12-17T10:21:56.653Z,100
2018-12-17T10:23:06.983Z,95
2018-12-17T10:24:17.227Z,105
2018-12-17T10:25:27.814Z,100
2018-12-17T10:26:38.575Z,105
2018-12-17T10:27:48.455Z,105
2018-12-17T10:29:02.039Z,110
2018-12-17T10:30:32.591Z,105
2018-12-17T10:32:08.423Z,110
2018-12-17T10:33:42.647Z,110
2018-12-17T10:35:08.937Z,105
2018-12-17T10:36:32.111Z,90
2018-12-17T10:38:03.005Z,95
2018-12-17T10:39:24.181Z,105
2018-12-17T10:40:49.687Z,105
2018-12-17T10:42:15.583Z,105
2018-12-17T10:43:44.557Z,105
2018-12-17T10:45:18.174Z,100
2018-12-17T10:46:30.816Z,95
2018-12-17T10:47:40.868Z,95
2018-12-17T10:48:51.119Z,95
2018-12-17T10:50:00.917Z,90
2018-12-17T10:51:11.061Z,95
2018-12-17T10:52:21.133Z,95
2018-12-17T10:53:31.029Z,100
2018-12-17T10:54:41.082Z,95
2018-12-17T10:55:51.140Z,90
2018-12-17T10:57:02.500Z,90
2018-12-17T10:58:12.933Z,95
2018-12-17T10:59:22.759Z,100
2018-12-17T11:00:39.272Z,100
2018-12-17T11:01:49.537Z,95
2018-12-17T11:02:59.614Z,90
2018-12-17T11:04:09.476Z,95
2018-12-17T11:05:19.565Z,95
2018-12-17T11:06:29.640Z,90
2018-12-17T11:07:39.724Z,90
2018-12-17T11:08:49.814Z,95
2018-12-17T11:09:59.880Z,95
2018-12-17T11:11:10.020Z,90
2018-12-17T11:12:20.103Z,90
2018-12-17T11:13:29.925Z,90
2018-12-17T11:14:40.068Z,95
2018-12-17T11:15:50.184Z,90
2018-12-17T11:17:00.792Z,90
2018-12-17T11:18:10.913Z,90
2018-12-17T11:19:20.459Z,90
2018-12-17T11:20:30.311Z,90
2018-12-17T11:21:40.463Z,90
2018-12-17T11:22:50.255Z,85
2018-12-17T11:24:00.568Z,85
2018-12-17T11:25:10.681Z,90
2018-12-17T11:26:20.498Z,90
2018-12-17T11:27:30.357Z,85
2018-12-17T11:28:40.428Z,85
2018-12-17T11:29:50.481Z,85
2018-12-17T11:31:01.229Z,85
2018-12-17T11:32:16.263Z,80
2018-12-17T11:33:26.386Z,80
2018-12-17T11:34:36.187Z,80
2018-12-17T11:35:45.991Z,85
2018-12-17T11:36:56.057Z,85
2018-12-17T11:38:08.271Z,90
2018-12-17T11:39:18.131Z,90
2018-12-17T11:40:27.921Z,85
2018-12-17T11:41:37.981Z,85
2018-12-17T11:42:47.787Z,85
2018-12-17T11:43:57.847Z,85
2018-12-17T11:45:07.939Z,85
2018-12-17T11:46:18.021Z,85
2018-12-17T11:47:28.092Z,90
2018-12-17T11:48:37.909Z,90
2018-12-17T11:49:47.971Z,90
2018-12-17T11:50:58.098Z,90
2018-12-17T11:52:08.568Z,90
2018-12-17T11:53:18.363Z,90
2018-12-17T11:54:28.448Z,85
2018-12-17T11:55:38.508Z,90
2018-12-17T11:56:48.572Z,90
2018-12-17T11:57:58.630Z,90
2018-12-17T11:59:08.705Z,90
2018-12-17T12:00:19.070Z,90
2018-12-17T12:01:29.143Z,85
2018-12-17T12:02:39.013Z,85
2018-12-17T12:03:49.075Z,85
2018-12-17T12:04:59.136Z,80
2018-12-17T12:06:16.070Z,80
2018-12-17T12:07:26.123Z,80
2018-12-17T12:08:36.320Z,80
2018-12-17T12:09:46.667Z,80
2018-12-17T12:10:56.931Z,80
2018-12-17T12:12:07.007Z,80
2018-12-17T12:13:17.138Z,85
2018-12-17T12:14:27.222Z,85
2018-12-17T12:15:37.060Z,85
2018-12-17T12:16:47.115Z,90
2018-12-17T12:17:57.160Z,90
2018-12-17T12:19:07.238Z,90
2018-12-17T12:20:17.377Z,90
2018-12-17T12:21:27.219Z,90
2018-12-17T12:22:37.614Z,90
2018-12-17T12:23:47.441Z,90
2018-12-17T12:24:57.346Z,90
2018-12-17T12:26:08.164Z,90
2018-12-17T12:27:18.227Z,90
2018-12-17T12:28:28.317Z,85
2018-12-17T12:29:38.401Z,85
2018-12-17T12:30:48.208Z,85
2018-12-17T12:31:58.270Z,85
2018-12-17T12:33:08.626Z,85
2018-12-17T12:34:18.680Z,90
2018-12-17T12:35:28.771Z,85
2018-12-17T12:36:38.852Z,85
2018-12-17T12:37:49.193Z,85
2018-12-17T12:38:59.278Z,80
2018-12-17T12:40:09.382Z,80
2018-12-17T12:41:19.198Z,75
2018-12-17T12:42:29.286Z,75
2018-12-17T12:43:39.357Z,75
2018-12-17T12:44:49.613Z,75
2018-12-17T12:45:59.673Z,75
2018-12-17T12:47:09.893Z,75
2018-12-17T12:48:19.962Z,75
2018-12-17T12:49:30.102Z,75
2018-12-17T12:50:39.746Z,75
2018-12-17T12:51:49.800Z,75
2018-12-17T12:52:59.842Z,75
2018-12-17T12:54:09.856Z,80
2018-12-17T12:55:19.932Z,75
2018-12-17T12:56:29.992Z,75
2018-12-17T12:57:39.916Z,70
2018-12-17T12:58:49.984Z,70
2018-12-17T12:59:59.914Z,70
2018-12-17T13:01:17.138Z,70
2018-12-17T13:02:27.202Z,70
2018-12-17T13:03:37.285Z,70
2018-12-17T13:04:47.346Z,70
2018-12-17T13:05:57.447Z,70
2018-12-17T13:07:08.770Z,65
2018-12-17T13:08:18.642Z,60
2018-12-17T13:09:28.719Z,60
2018-12-17T13:10:38.789Z,60
2018-12-17T13:11:49.094Z,55
2018-12-17T13:12:59.211Z,55
2018-12-17T13:14:09.295Z,55
2018-12-17T13:15:19.387Z,55
2018-12-17T13:16:29.452Z,55
2018-12-17T13:17:39.278Z,60
2018-12-17T13:18:49.151Z,60
2018-12-17T13:19:59.247Z,60
2018-12-17T13:21:09.064Z,60
2018-12-17T13:22:19.140Z,60
2018-12-17T13:23:29.249Z,60
2018-12-17T13:24:39.315Z,55
2018-12-17T13:25:49.440Z,55
2018-12-17T13:26:59.506Z,50
2018-12-17T13:28:10.266Z,50
2018-12-17T13:29:20.336Z,50
2018-12-17T13:30:30.135Z,50
2018-12-17T13:31:40.308Z,45
2018-12-17T13:32:50.411Z,45
2018-12-17T13:34:00.453Z,45
2018-12-17T13:35:10.264Z,45
2018-12-17T13:36:21.990Z,45
2018-12-17T13:37:32.045Z,40
2018-12-17T13:38:42.126Z,40
2018-12-17T13:39:51.959Z,40
2018-12-17T13:41:02.044Z,40
2018-12-17T13:42:12.150Z,35
2018-12-17T13:43:22.187Z,35
2018-12-17T13:44:32.256Z,35
2018-12-17T13:45:42.062Z,30
2018-12-17T13:46:52.139Z,30
2018-12-17T13:48:03.294Z,30
2018-12-17T13:49:13.206Z,30
2018-12-17T13:50:29.767Z,30
2018-12-17T13:51:39.784Z,25
2018-12-17T13:52:49.855Z,25
2018-12-17T13:54:00.004Z,25
2018-12-17T13:55:10.073Z,25
2018-12-17T13:56:19.616Z,25
2018-12-17T13:57:29.414Z,25
2018-12-17T13:58:39.460Z,20
2018-12-17T13:59:49.262Z,20
2018-12-17T14:00:59.346Z,20
2018-12-17T14:02:09.414Z,20
2018-12-17T14:03:19.479Z,20
2018-12-17T14:04:29.541Z,20
2018-12-17T14:05:39.605Z,15
2018-12-17T14:06:49.647Z,15
2018-12-17T14:07:59.190Z,15
2018-12-17T14:09:09.262Z,15
2018-12-17T14:10:19.310Z,15
2018-12-17T14:11:29.133Z,15
2018-12-17T14:12:39.189Z,15
2018-12-17T14:13:49.238Z,15
2018-12-17T14:14:58.772Z,15
2018-12-17T14:16:08.822Z,15
2018-12-17T14:17:18.889Z,15
2018-12-17T14:18:28.731Z,10
2018-12-17T14:19:38.850Z,10
2018-12-17T14:20:48.929Z,10
2018-12-17T14:21:59.019Z,10
2018-12-17T14:23:09.907Z,10
2018-12-17T14:24:19.944Z,10
2018-12-17T14:25:30.044Z,10
2018-12-17T14:26:39.836Z,10
2018-12-17T14:27:49.883Z,10
2018-12-17T14:28:59.959Z,10
2018-12-17T14:30:09.787Z,10
2018-12-17T14:31:19.845Z,10
2018-12-17T14:32:29.662Z,10
2018-12-17T14:33:39.753Z,10
2018-12-17T14:34:49.864Z,5
2018-12-17T14:35:59.651Z,5
2018-12-17T14:37:09.467Z,5
2018-12-17T14:38:19.543Z,5
2018-12-17T14:39:29.638Z,5
2018-12-17T14:40:39.708Z,5
2018-12-17T14:41:49.782Z,5
2018-12-17T14:42:59.875Z,5
2018-12-17T14:44:09.940Z,5
2018-12-17T14:45:20.012Z,5
2018-12-17T14:46:30.138Z,5
2018-12-17T14:47:40.201Z,5
2018-12-17T14:48:52.393Z,5
2018-12-17T14:50:02.558Z,5
2018-12-17T14:51:14.670Z,5
2018-12-17T14:52:25.060Z,0
2018-12-17T14:53:35.165Z,0
2018-12-17T14:54:45.278Z,0
2018-12-17T14:55:55.194Z,0
2018-12-17T14:57:05.294Z,0
2018-12-17T14:58:15.419Z,0
2018-12-17T14:59:25.563Z,0
2018-12-17T15:00:35.649Z,0
2018-12-17T15:01:45.835Z,0
2018-12-17T15:02:56.003Z,0
2018-12-17T15:04:05.541Z,0
2018-12-17T15:05:15.614Z,0
2018-12-17T15:06:25.691Z,0
2018-12-17T15:07:37.528Z,0
2018-12-17T15:08:47.600Z,0
2018-12-17T15:09:57.705Z,0
2018-12-17T15:11:07.758Z,0
2018-12-17T15:12:17.837Z,0
2018-12-17T15:13:27.908Z,0
2018-12-17T15:14:38.223Z,0
2018-12-17T15:15:48.268Z,0
2018-12-17T15:16:58.350Z,0
2018-12-17T15:18:08.433Z,0
2018-12-17T15:19:18.821Z,0
2018-12-17T15:20:28.649Z,0
2018-12-17T15:21:38.751Z,0
2018-12-17T15:22:48.793Z,0
2018-12-17T15:23:58.712Z,0
2018-12-17T15:25:08.813Z,0
2018-12-17T15:26:18.701Z,0
2018-12-17T15:27:28.890Z,0
2018-12-17T15:28:38.769Z,0
2018-12-17T15:29:48.742Z,0
2018-12-17T15:30:59.005Z,0
2018-12-17T15:32:08.815Z,0
2018-12-17T15:33:18.886Z,0
2018-12-17T15:34:28.940Z,0
2018-12-17T15:35:39.009Z,0
2018-12-17T15:36:50.328Z,0
2018-12-17T15:38:00.396Z,0
2018-12-17T15:39:10.505Z,0
2018-12-17T15:40:20.588Z,0
2018-12-17T15:41:30.409Z,0
2018-12-17T15:42:47.918Z,0
2018-12-17T15:43:57.978Z,0
2018-12-17T15:45:08.119Z,0
2018-12-17T15:46:18.213Z,0
2018-12-17T15:47:28.271Z,0
2018-12-17T15:48:38.077Z,0
2018-12-17T15:49:48.159Z,0
2018-12-17T15:50:58.243Z,0
2018-12-17T15:52:08.305Z,0
2018-12-17T15:53:18.396Z,0
2018-12-17T15:54:28.464Z,0
2018-12-17T15:55:38.523Z,0
2018-12-17T15:56:48.730Z,0
2018-12-17T15:57:58.872Z,0
2018-12-17T15:59:08.680Z,0
2018-12-17T16:00:18.479Z,0
2018-12-17T16:01:28.305Z,0
2018-12-17T16:02:38.390Z,0
2018-12-17T16:03:48.696Z,0
2018-12-17T16:04:58.784Z,0
2018-12-17T16:06:08.899Z,0
2018-12-17T16:07:18.981Z,0
2018-12-17T16:08:29.052Z,0
2018-12-17T16:09:39.132Z,0
2018-12-17T16:10:48.995Z,0
2018-12-17T16:11:59.060Z,0
2018-12-17T16:13:08.851Z,0
2018-12-17T16:14:18.918Z,0
2018-12-17T16:15:28.987Z,0
2018-12-17T16:16:39.055Z,0
2018-12-17T16:17:49.133Z,0
2018-12-17T16:18:59.218Z,0
2018-12-17T16:20:10.568Z,0
2018-12-17T16:21:20.442Z,0
2018-12-17T16:22:30.496Z,0
2018-12-17T16:23:40.304Z,0
2018-12-17T16:24:50.394Z,0
2018-12-17T16:26:02.264Z,0
2018-12-17T16:27:18.992Z,0
2018-12-17T16:28:29.575Z,0
2018-12-17T16:29:39.899Z,0
2018-12-17T16:30:49.699Z,0
2018-12-17T16:32:06.928Z,0
2018-12-17T16:33:17.013Z,0
2018-12-17T16:34:27.082Z,0
2018-12-17T16:35:37.134Z,0
2018-12-17T16:36:47.256Z,0
2018-12-17T16:37:57.060Z,0
2018-12-17T16:39:06.885Z,0
2018-12-17T16:40:17.019Z,0
2018-12-17T16:41:27.101Z,0
2018-12-17T16:42:37.278Z,0
2018-12-17T16:43:47.606Z,0
2018-12-17T16:44:57.427Z,0
2018-12-17T16:46:08.581Z,0
2018-12-17T16:47:18.396Z,0
2018-12-17T16:48:28.518Z,0
2018-12-17T16:49:38.606Z,0
2018-12-17T16:50:48.701Z,0
2018-12-17T16:51:58.771Z,0
2018-12-17T16:53:08.588Z,0
2018-12-17T16:54:18.782Z,0
2018-12-17T16:55:28.852Z,0
2018-12-17T16:56:39.127Z,0
2018-12-17T16:57:49.282Z,0
2018-12-17T16:58:59.200Z,0
2018-12-17T17:00:09.363Z,0
2018-12-17T17:01:19.478Z,0
2018-12-17T17:02:29.539Z,0
2018-12-17T17:03:39.338Z,0
2018-12-17T17:04:49.149Z,0
2018-12-17T17:05:59.022Z,0
2018-12-17T17:07:08.814Z,0
2018-12-17T17:08:18.641Z,0
2018-12-17T17:09:28.726Z,0
2018-12-17T17:10:38.865Z,0
2018-12-17T17:11:49.226Z,0
2018-12-17T17:12:59.037Z,0
2018-12-17T17:14:08.876Z,0
2018-12-17T17:15:18.941Z,0
2018-12-17T17:16:29.275Z,0
2018-12-17T17:17:39.403Z,0
2018-12-17T17:18:49.489Z,0
2018-12-17T17:20:00.934Z,0
2018-12-17T17:21:11.204Z,0
2018-12-17T17:22:21.559Z,0
2018-12-17T17:23:31.724Z,0
2018-12-17T17:24:41.801Z,0
2018-12-17T17:25:52.202Z,0
2018-12-17T17:27:02.258Z,0
2018-12-17T17:28:12.711Z,0
2018-12-17T17:29:22.524Z,0
2018-12-17T17:30:33.029Z,0
2018-12-17T17:31:43.242Z,0
2018-12-17T17:32:53.389Z,0